createdAt,value
2022-11-28T00:03:14.902Z,66.27
2022-11-28T00:08:19.654Z,59.73
2022-11-28T00:13:23.416Z,57.66
2022-11-28T00:27:03.874Z,68.86
2022-11-28T00:38:57.797Z,61.77
2022-11-28T00:51:26.651Z,57.75
2022-11-28T00:56:38.365Z,65.86
2022-11-28T01:08:50.633Z,63.20
2022-11-28T01:14:00.720Z,61.85
2022-11-28T01:19:05.544Z,61.00
2022-11-28T01:24:10.517Z,61.26
2022-11-28T01:29:14.334Z,60.75
2022-11-28T01:35:08.435Z,60.80
2022-11-28T01:40:13.794Z,61.44
2022-11-28T01:45:32.373Z,61.43
2022-11-28T01:50:37.929Z,60.79
2022-11-28T02:04:24.202Z,57.80
2022-11-28T02:09:27.755Z,57.53
2022-11-28T02:15:32.647Z,66.51
2022-11-28T02:20:54.841Z,64.03
2022-11-28T02:26:33.611Z,62.27
2022-11-28T02:32:25.223Z,61.96
2022-11-28T02:44:52.772Z,61.96
2022-11-28T02:50:13.898Z,61.32
2022-11-28T02:59:50.105Z,62.36
2022-11-28T03:05:41.175Z,66.27
2022-11-28T03:11:22.023Z,66.77
2022-11-28T03:16:34.713Z,65.64
2022-11-28T03:21:59.678Z,65.50
2022-11-28T03:27:18.771Z,66.47
2022-11-28T03:32:32.352Z,65.90
2022-11-28T03:37:46.489Z,65.27
2022-11-28T03:42:59.113Z,65.25
2022-11-28T03:48:40.322Z,65.91
2022-11-28T03:53:51.933Z,66.62
2022-11-28T03:59:04.587Z,66.74
2022-11-28T04:04:23.542Z,67.43
2022-11-28T04:09:46.142Z,66.77
2022-11-28T04:16:13.278Z,67.65
2022-11-28T04:21:31.440Z,67.60
2022-11-28T04:26:54.244Z,66.41
2022-11-28T04:33:20.051Z,65.90
2022-11-28T04:38:28.734Z,66.67
2022-11-28T04:54:24.370Z,60.94
2022-11-28T04:59:32.037Z,66.72
2022-11-28T05:04:37.591Z,68.00
2022-11-28T05:09:41.201Z,66.80
2022-11-28T05:14:45.061Z,65.01
2022-11-28T05:19:48.849Z,63.20
2022-11-28T05:24:53.005Z,62.50
2022-11-28T05:29:56.622Z,62.68
2022-11-28T05:35:00.260Z,65.53
2022-11-28T05:40:05.173Z,65.33
2022-11-28T05:45:09.522Z,64.89
2022-11-28T05:50:13.202Z,64.88
2022-11-28T05:55:17.227Z,64.74
2022-11-28T06:00:21.882Z,64.76
2022-11-28T06:05:41.480Z,65.07
2022-11-28T06:10:45.739Z,66.48
2022-11-28T06:15:49.489Z,67.92
2022-11-28T06:20:52.990Z,66.82
2022-11-28T06:25:56.813Z,65.90
2022-11-28T06:39:47.217Z,66.28
2022-11-28T06:44:50.791Z,66.28
2022-11-28T06:50:41.320Z,67.23
2022-11-28T07:02:56.235Z,68.39
2022-11-28T07:08:01.246Z,67.38
2022-11-28T07:13:05.707Z,67.28
2022-11-28T07:18:09.568Z,68.01
2022-11-28T07:46:11.989Z,68.12
2022-11-28T07:51:42.645Z,67.17
2022-11-28T07:58:15.827Z,67.81
2022-11-28T08:03:19.614Z,68.48
2022-11-28T08:29:18.169Z,65.11
2022-11-28T08:34:47.498Z,64.29
2022-11-28T08:39:51.414Z,62.50
2022-11-28T08:45:45.420Z,64.91
2022-11-28T08:57:39.228Z,67.09
2022-11-28T09:02:43.320Z,67.93
2022-11-28T09:07:47.246Z,67.90
2022-11-28T09:12:52.601Z,68.67
2022-11-28T09:17:56.299Z,69.00
2022-11-28T09:23:00.127Z,71.84
2022-11-28T09:35:11.967Z,71.82
2022-11-28T09:40:26.154Z,72.03
2022-11-28T09:55:55.250Z,71.11
2022-11-28T10:01:11.417Z,71.22
2022-11-28T10:06:48.107Z,72.63
2022-11-28T10:12:07.551Z,72.05
2022-11-28T10:17:23.551Z,71.72
2022-11-28T10:32:43.640Z,68.92
2022-11-28T10:37:46.734Z,69.50
2022-11-28T10:43:33.277Z,68.97
2022-11-28T10:49:28.799Z,68.14
2022-11-28T10:55:02.060Z,69.75
2022-11-28T11:00:19.574Z,69.33
2022-11-28T11:05:47.127Z,68.45
2022-11-28T11:11:31.946Z,67.89
2022-11-28T11:17:51.598Z,67.42
2022-11-28T11:23:00.991Z,67.01
2022-11-28T11:35:45.772Z,67.77
2022-11-28T11:41:29.193Z,66.95
2022-11-28T11:47:01.652Z,66.61
2022-11-28T11:53:57.019Z,66.45
2022-11-28T11:59:05.508Z,66.93
2022-11-28T12:04:45.005Z,66.51
2022-11-28T12:19:25.051Z,65.13
2022-11-28T12:25:23.456Z,65.14
2022-11-28T12:45:18.446Z,65.64
2022-11-28T12:50:53.837Z,65.89
2022-11-28T13:06:40.473Z,68.33
2022-11-28T13:12:27.684Z,69.20
2022-11-28T13:18:08.636Z,69.06
2022-11-28T13:23:41.729Z,68.90
2022-11-28T13:41:43.306Z,70.30
2022-11-28T13:57:39.601Z,68.71
2022-11-28T14:43:25.047Z,62.59
2022-11-28T14:55:50.412Z,65.10
2022-11-28T15:08:02.023Z,65.48
2022-11-28T15:13:27.528Z,64.87
2022-11-28T15:18:33.597Z,64.75
2022-11-28T15:23:41.622Z,64.49
2022-11-28T15:28:45.962Z,64.26
2022-11-28T15:33:51.309Z,64.06
2022-11-28T15:38:57.380Z,63.80
2022-11-28T15:58:57.557Z,60.81
2022-11-28T16:11:11.266Z,61.74
2022-11-28T16:16:41.343Z,66.76
2022-11-28T16:21:52.941Z,66.08
2022-11-28T16:27:04.073Z,64.00
2022-11-28T16:32:42.059Z,63.03
2022-11-28T16:37:46.280Z,62.24
2022-11-28T16:42:59.428Z,60.33
2022-11-28T16:48:09.273Z,59.11
2022-11-28T16:53:45.362Z,60.50
2022-11-28T16:59:14.061Z,66.78
2022-11-28T17:04:23.542Z,62.62
2022-11-28T17:09:27.710Z,58.18
2022-11-28T17:14:32.427Z,62.06
2022-11-28T17:19:36.899Z,65.85
2022-11-28T17:24:41.288Z,60.93
2022-11-28T17:29:45.396Z,58.14
2022-11-28T17:34:49.648Z,66.50
2022-11-28T17:40:12.855Z,63.25
2022-11-28T17:45:17.245Z,60.49
2022-11-28T17:50:21.255Z,58.26
2022-11-28T18:02:33.633Z,65.02
2022-11-28T18:07:37.519Z,64.52
2022-11-28T18:13:10.916Z,62.75
2022-11-28T18:18:41.225Z,61.62
2022-11-28T18:23:53.667Z,59.93
2022-11-28T18:29:00.450Z,60.54
2022-11-28T18:34:08.771Z,62.21
2022-11-28T18:39:16.085Z,63.70
2022-11-28T18:44:20.684Z,64.15
2022-11-28T18:49:24.944Z,65.99
2022-11-28T18:54:31.526Z,68.40
2022-11-28T18:59:36.857Z,68.14
2022-11-28T19:04:41.364Z,65.40
2022-11-28T19:09:46.229Z,63.98
2022-11-28T19:14:51.694Z,64.16
2022-11-28T19:19:57.963Z,64.29
2022-11-28T19:25:04.711Z,64.73
2022-11-28T19:30:09.900Z,63.98
2022-11-28T19:35:14.691Z,63.22
2022-11-28T19:40:19.657Z,62.33
2022-11-28T19:45:25.375Z,62.87
2022-11-28T19:50:30.032Z,62.62
2022-11-28T19:55:37.559Z,62.81
2022-11-28T20:00:42.877Z,62.96
2022-11-28T20:05:47.274Z,61.96
2022-11-28T20:10:51.971Z,61.85
2022-11-28T20:15:56.464Z,60.23
2022-11-28T20:21:10.910Z,60.42
2022-11-28T20:26:17.761Z,60.06
2022-11-28T20:31:35.877Z,60.99
2022-11-28T20:36:41.330Z,63.06
2022-11-28T20:41:45.385Z,65.11
2022-11-28T20:46:50.959Z,66.88
2022-11-28T20:51:54.954Z,67.17
2022-11-28T21:02:24.956Z,63.62
2022-11-28T21:07:29.887Z,63.60
2022-11-28T21:12:34.316Z,61.18
2022-11-28T21:17:38.273Z,62.06
2022-11-28T21:22:42.174Z,63.06
2022-11-28T21:42:03.463Z,65.26
2022-11-28T21:47:59.569Z,63.11
2022-11-28T21:53:03.579Z,61.40
2022-11-28T22:12:48.990Z,61.26
2022-11-28T22:18:17.591Z,59.77
2022-11-28T22:32:05.273Z,58.73
2022-11-28T22:37:09.968Z,64.03
2022-11-28T22:43:00.877Z,59.90
2022-11-28T22:48:05.527Z,63.25
2022-11-28T22:53:15.391Z,62.24
2022-11-28T22:58:19.101Z,59.26
2022-11-28T23:03:22.950Z,64.75
2022-11-28T23:08:30.552Z,60.38
2022-11-28T23:20:45.946Z,61.24
2022-11-28T23:26:41.765Z,61.81
2022-11-28T23:31:47.408Z,61.53
2022-11-28T23:37:40.283Z,62.23
2022-11-28T23:42:44.110Z,63.95
2022-11-28T23:48:02.850Z,61.80
2022-11-28T23:53:06.696Z,59.84
2022-11-28T23:58:10.442Z,63.19
